createdAt,value
2023-02-17T00:01:44.241Z,46.33
2023-02-17T00:04:13.360Z,48.77
2023-02-17T00:06:43.092Z,50.73
2023-02-17T00:09:11.406Z,56.20
2023-02-17T00:11:40.033Z,56.80
2023-02-17T00:14:10.440Z,59.37
2023-02-17T00:16:39.066Z,63.97
2023-02-17T00:19:24.934Z,57.93
2023-02-17T00:21:57.498Z,52.83
2023-02-17T00:24:26.874Z,55.40
2023-02-17T00:26:55.933Z,40.10
2023-02-17T00:29:28.106Z,48.10
2023-02-17T00:31:57.472Z,46.77
2023-02-17T00:34:28.005Z,51.53
2023-02-17T00:36:57.813Z,48.27
2023-02-17T00:39:27.628Z,51.13
2023-02-17T00:41:56.168Z,58.77
2023-02-17T00:44:26.580Z,50.70
2023-02-17T00:46:55.410Z,49.93
2023-02-17T00:49:27.638Z,49.93
2023-02-17T00:52:01.209Z,51.00
2023-02-17T00:54:29.902Z,54.20
2023-02-17T00:56:58.371Z,50.60
2023-02-17T00:59:26.689Z,49.63
2023-02-17T01:01:54.989Z,48.10
2023-02-17T01:04:23.402Z,50.63
2023-02-17T01:06:52.052Z,54.27
2023-02-17T01:09:21.812Z,49.57
2023-02-17T01:11:50.549Z,48.67
2023-02-17T01:14:19.467Z,49.13
2023-02-17T01:16:50.441Z,48.07
2023-02-17T01:19:20.664Z,48.87
2023-02-17T01:21:50.386Z,52.50
2023-02-17T01:24:18.764Z,49.80
2023-02-17T01:26:48.609Z,48.17
2023-02-17T01:29:18.010Z,46.33
2023-02-17T01:31:46.477Z,47.43
2023-02-17T01:34:15.131Z,47.13
2023-02-17T01:36:43.437Z,46.97
2023-02-17T01:39:15.711Z,44.23
2023-02-17T01:41:44.635Z,41.10
2023-02-17T01:44:19.207Z,43.37
2023-02-17T01:46:50.674Z,42.10
2023-02-17T01:49:36.858Z,42.33
2023-02-17T01:52:13.782Z,42.10
2023-02-17T01:54:49.819Z,48.53
2023-02-17T01:57:24.678Z,41.77
2023-02-17T01:59:55.686Z,43.83
2023-02-17T02:02:24.459Z,43.03
2023-02-17T02:04:55.349Z,45.03
2023-02-17T02:07:32.800Z,43.63
2023-02-17T02:10:02.101Z,39.17
2023-02-17T02:12:34.579Z,42.07
2023-02-17T02:15:10.257Z,44.33
2023-02-17T02:18:04.313Z,40.07
2023-02-17T02:21:15.051Z,37.20
2023-02-17T02:24:23.024Z,37.73
2023-02-17T02:27:52.114Z,37.80
2023-02-17T02:31:04.708Z,36.63
2023-02-17T02:33:44.196Z,39.67
2023-02-17T02:36:20.990Z,42.80
2023-02-17T02:39:00.946Z,39.50
2023-02-17T02:41:37.411Z,38.27
2023-02-17T02:44:07.804Z,40.77
2023-02-17T02:46:36.987Z,40.93
2023-02-17T02:49:08.808Z,39.73
2023-02-17T02:51:53.597Z,37.57
2023-02-17T02:54:47.562Z,42.33
2023-02-17T02:57:34.639Z,40.63
2023-02-17T03:00:19.185Z,39.47
2023-02-17T03:02:56.976Z,41.43
2023-02-17T03:05:41.506Z,41.33
2023-02-17T03:08:16.736Z,39.47
2023-02-17T03:10:50.476Z,35.17
2023-02-17T03:13:19.822Z,31.27
2023-02-17T03:15:49.277Z,32.37
2023-02-17T03:18:18.045Z,29.73
2023-02-17T03:20:56.099Z,30.50
2023-02-17T03:23:24.463Z,29.97
2023-02-17T03:25:53.017Z,30.57
2023-02-17T03:28:21.435Z,28.03
2023-02-17T03:30:49.919Z,28.90
2023-02-17T03:33:18.246Z,28.77
2023-02-17T03:35:47.966Z,29.80
2023-02-17T03:38:16.366Z,26.40
2023-02-17T03:40:44.732Z,27.77
2023-02-17T03:43:13.046Z,31.03
2023-02-17T03:45:41.360Z,27.77
2023-02-17T03:48:09.627Z,28.23
2023-02-17T03:50:37.988Z,26.13
2023-02-17T03:53:07.797Z,26.73
2023-02-17T03:55:36.161Z,24.27
2023-02-17T03:58:05.108Z,25.20
2023-02-17T04:00:33.559Z,22.80
2023-02-17T04:03:02.220Z,24.10
2023-02-17T04:05:30.971Z,23.67
2023-02-17T04:07:59.621Z,22.93
2023-02-17T04:10:29.360Z,22.53
2023-02-17T04:12:57.658Z,23.90
2023-02-17T04:15:26.059Z,22.83
2023-02-17T04:17:54.464Z,23.30
2023-02-17T04:20:23.357Z,22.60
2023-02-17T04:22:51.671Z,23.13
2023-02-17T04:25:20.288Z,25.00
2023-02-17T04:27:50.043Z,24.47
2023-02-17T04:30:18.785Z,20.40
2023-02-17T04:32:47.191Z,23.03
2023-02-17T04:35:16.036Z,22.00
2023-02-17T04:37:44.484Z,25.27
2023-02-17T04:40:14.189Z,22.13
2023-02-17T04:42:42.567Z,23.53
2023-02-17T04:45:15.233Z,20.77
2023-02-17T04:47:43.585Z,19.57
2023-02-17T04:50:13.396Z,27.77
2023-02-17T04:52:41.991Z,22.33
2023-02-17T04:55:10.421Z,24.60
2023-02-17T04:57:39.680Z,23.90
2023-02-17T05:00:10.011Z,21.33
2023-02-17T05:02:39.750Z,21.90
2023-02-17T05:05:08.886Z,21.77
2023-02-17T05:07:37.315Z,20.63
2023-02-17T05:10:06.368Z,16.87
2023-02-17T05:12:35.504Z,19.20
2023-02-17T05:15:03.927Z,17.17
2023-02-17T05:17:32.212Z,21.27
2023-02-17T05:20:02.598Z,19.90
2023-02-17T05:22:31.363Z,23.23
2023-02-17T05:25:00.003Z,22.90
2023-02-17T05:27:28.381Z,19.37
2023-02-17T05:29:57.046Z,27.50
2023-02-17T05:32:25.746Z,25.20
2023-02-17T05:34:54.313Z,22.17
2023-02-17T05:37:24.108Z,21.17
2023-02-17T05:39:52.410Z,25.13
2023-02-17T05:42:21.024Z,23.87
2023-02-17T05:44:49.381Z,20.90
2023-02-17T05:47:17.973Z,18.93
2023-02-17T05:49:46.581Z,17.40
2023-02-17T05:52:15.286Z,20.57
2023-02-17T05:54:45.049Z,16.63
2023-02-17T05:57:13.936Z,15.83
2023-02-17T05:59:42.507Z,17.20
2023-02-17T06:02:13.014Z,19.93
2023-02-17T06:04:41.794Z,17.43
2023-02-17T06:07:12.369Z,19.97
2023-02-17T06:09:40.662Z,20.23
2023-02-17T06:12:10.520Z,17.63
2023-02-17T06:14:39.004Z,17.30
2023-02-17T06:17:07.345Z,14.90
2023-02-17T06:19:36.060Z,14.07
2023-02-17T06:22:04.520Z,19.33
2023-02-17T06:24:33.041Z,16.00
2023-02-17T06:27:02.902Z,20.27
2023-02-17T06:29:32.723Z,15.53
2023-02-17T06:32:01.089Z,22.43
2023-02-17T06:34:29.647Z,15.40
2023-02-17T06:36:58.037Z,15.63
2023-02-17T06:39:26.480Z,15.03
2023-02-17T06:41:55.090Z,16.27
2023-02-17T06:44:23.554Z,13.80
2023-02-17T06:46:53.444Z,16.80
2023-02-17T06:49:21.942Z,19.03
2023-02-17T06:51:50.402Z,14.57
2023-02-17T06:54:19.038Z,14.70
2023-02-17T06:56:47.799Z,14.40
2023-02-17T06:59:16.322Z,15.97
2023-02-17T07:01:45.739Z,14.23
2023-02-17T07:04:15.432Z,18.70
2023-02-17T07:06:44.096Z,14.77
2023-02-17T07:09:14.036Z,16.73
2023-02-17T07:11:45.233Z,16.13
2023-02-17T07:14:13.915Z,15.50
2023-02-17T07:16:42.319Z,15.60
2023-02-17T07:19:10.700Z,14.83
2023-02-17T07:21:40.491Z,14.07
2023-02-17T07:24:09.678Z,14.23
2023-02-17T07:26:39.592Z,15.67
2023-02-17T07:29:09.645Z,15.27
2023-02-17T07:31:38.729Z,15.43
2023-02-17T07:34:07.295Z,15.43
2023-02-17T07:36:39.052Z,13.17
2023-02-17T07:39:08.707Z,16.37
2023-02-17T07:41:37.062Z,14.57
2023-02-17T07:44:11.166Z,12.57
2023-02-17T07:46:40.774Z,15.17
2023-02-17T07:49:09.404Z,15.47
2023-02-17T07:51:37.784Z,12.23
2023-02-17T07:54:06.573Z,12.03
2023-02-17T07:56:36.437Z,11.43
2023-02-17T07:59:04.997Z,17.53
2023-02-17T08:01:33.368Z,13.73
2023-02-17T08:04:02.221Z,12.73
2023-02-17T08:06:31.364Z,12.03
2023-02-17T08:09:17.341Z,14.37
2023-02-17T08:12:04.475Z,12.83
2023-02-17T08:14:33.798Z,12.40
2023-02-17T08:17:02.523Z,12.57
2023-02-17T08:19:46.689Z,15.43
2023-02-17T08:22:16.223Z,13.30
2023-02-17T08:24:44.623Z,12.83
2023-02-17T08:27:15.612Z,10.97
2023-02-17T08:29:44.744Z,12.03
2023-02-17T08:33:17.885Z,11.47
2023-02-17T08:35:46.296Z,13.33
2023-02-17T08:38:15.057Z,14.10
2023-02-17T08:40:43.630Z,11.67
2023-02-17T08:43:13.664Z,12.70
2023-02-17T08:45:42.387Z,14.73
2023-02-17T08:48:10.961Z,10.27
2023-02-17T08:50:39.421Z,14.07
2023-02-17T08:53:07.609Z,12.37
2023-02-17T08:55:48.561Z,13.43
2023-02-17T08:58:19.513Z,12.77
2023-02-17T09:00:47.852Z,11.47
2023-02-17T09:03:16.844Z,11.67
2023-02-17T09:05:45.574Z,11.60
2023-02-17T09:08:13.981Z,13.80
2023-02-17T09:10:42.414Z,11.67
2023-02-17T09:13:10.818Z,12.70
2023-02-17T09:15:40.758Z,10.63
2023-02-17T09:18:09.308Z,12.97
2023-02-17T09:20:39.851Z,12.30
2023-02-17T09:23:08.713Z,11.40
2023-02-17T09:25:37.307Z,11.23
2023-02-17T09:28:06.482Z,14.53
2023-02-17T09:30:35.198Z,15.17
2023-02-17T09:33:05.444Z,9.37
2023-02-17T09:35:34.858Z,12.00
2023-02-17T09:38:03.360Z,8.82
2023-02-17T09:40:43.974Z,10.30
2023-02-17T09:43:17.828Z,12.63
2023-02-17T09:45:52.052Z,10.38
2023-02-17T09:48:29.825Z,11.03
2023-02-17T09:51:05.858Z,12.27
2023-02-17T09:53:42.352Z,9.52
2023-02-17T09:56:19.818Z,11.83
2023-02-17T09:58:54.446Z,9.67
2023-02-17T10:01:30.237Z,11.40
2023-02-17T10:04:09.646Z,10.45
2023-02-17T10:06:41.952Z,11.55
2023-02-17T10:09:19.478Z,10.75
2023-02-17T10:11:56.115Z,12.77
2023-02-17T10:14:32.214Z,7.40
2023-02-17T10:17:09.520Z,10.25
2023-02-17T10:19:55.131Z,10.07
2023-02-17T10:22:26.848Z,9.48
2023-02-17T10:24:56.013Z,14.02
2023-02-17T10:27:38.964Z,7.65
2023-02-17T10:30:39.883Z,8.88
2023-02-17T10:33:21.538Z,9.90
2023-02-17T10:35:54.750Z,8.00
2023-02-17T10:38:44.484Z,9.65
2023-02-17T10:41:18.805Z,8.02
2023-02-17T10:43:49.427Z,8.93
2023-02-17T10:46:26.993Z,6.53
2023-02-17T10:48:59.993Z,8.23
2023-02-17T10:51:32.345Z,5.97
2023-02-17T10:54:07.204Z,6.25
2023-02-17T10:56:41.917Z,6.93
2023-02-17T10:59:23.102Z,9.73
2023-02-17T11:01:52.110Z,6.70
2023-02-17T11:04:20.423Z,7.50
2023-02-17T11:06:55.992Z,4.63
2023-02-17T11:09:28.828Z,9.20
2023-02-17T11:12:03.668Z,6.78
2023-02-17T11:14:41.709Z,7.43
2023-02-17T11:17:30.318Z,8.93
2023-02-17T11:20:04.964Z,6.03
2023-02-17T11:22:40.910Z,5.97
2023-02-17T11:25:25.586Z,5.47
2023-02-17T11:27:55.477Z,9.35
2023-02-17T11:30:27.612Z,6.60
2023-02-17T11:32:56.886Z,7.00
2023-02-17T11:35:29.781Z,6.82
2023-02-17T11:38:11.995Z,5.68
2023-02-17T11:40:41.011Z,7.10
2023-02-17T11:43:19.156Z,10.18
2023-02-17T11:46:00.976Z,7.18
2023-02-17T11:49:16.539Z,6.93
2023-02-17T11:52:01.604Z,6.72
2023-02-17T11:54:40.421Z,6.72
2023-02-17T11:57:31.499Z,9.18
2023-02-17T12:00:14.803Z,9.05
2023-02-17T12:03:44.672Z,6.93
2023-02-17T12:06:22.209Z,9.05
2023-02-17T12:09:10.878Z,5.35
2023-02-17T12:11:55.455Z,5.22
2023-02-17T12:14:52.198Z,8.95
2023-02-17T12:17:36.829Z,8.30
2023-02-17T12:20:32.732Z,8.73
2023-02-17T12:23:20.421Z,9.15
2023-02-17T12:25:58.419Z,5.53
2023-02-17T12:28:51.935Z,6.35
2023-02-17T12:31:52.946Z,7.22
2023-02-17T12:34:32.823Z,7.85
2023-02-17T12:37:05.575Z,7.60
2023-02-17T12:39:42.345Z,9.60
2023-02-17T12:42:20.378Z,6.72
2023-02-17T12:44:55.177Z,6.28
2023-02-17T12:47:32.314Z,8.02
2023-02-17T12:50:07.056Z,4.82
2023-02-17T12:52:42.127Z,6.28
2023-02-17T12:55:20.902Z,7.07
2023-02-17T12:57:57.133Z,6.82
2023-02-17T13:00:36.010Z,6.28
2023-02-17T13:03:06.171Z,5.95
2023-02-17T13:05:45.182Z,6.28
2023-02-17T13:08:22.605Z,5.68
2023-02-17T13:11:03.580Z,6.32
2023-02-17T13:13:34.599Z,6.70
2023-02-17T13:16:09.260Z,5.95
2023-02-17T13:18:40.864Z,6.88
2023-02-17T13:21:33.042Z,7.90
2023-02-17T13:24:07.371Z,6.97
2023-02-17T13:26:37.619Z,7.18
2023-02-17T13:29:35.708Z,9.73
2023-02-17T13:32:10.763Z,9.63
2023-02-17T13:34:43.379Z,9.30
2023-02-17T13:37:28.289Z,10.40
2023-02-17T13:39:56.717Z,8.13
2023-02-17T13:42:45.241Z,8.65
2023-02-17T13:45:24.182Z,10.95
2023-02-17T13:47:56.244Z,10.02
2023-02-17T13:50:32.870Z,9.88
2023-02-17T13:53:02.432Z,8.83
2023-02-17T13:55:31.019Z,9.07
2023-02-17T13:58:00.986Z,8.75
2023-02-17T14:00:31.884Z,13.15
2023-02-17T14:03:19.387Z,8.93
2023-02-17T14:05:52.192Z,8.20
2023-02-17T14:08:29.693Z,10.73
2023-02-17T14:10:59.910Z,12.13
2023-02-17T14:13:28.400Z,8.93
2023-02-17T14:15:58.999Z,9.00
2023-02-17T14:18:36.863Z,14.88
2023-02-17T14:21:10.524Z,12.07
2023-02-17T14:23:47.614Z,7.25
2023-02-17T14:26:30.322Z,9.65
2023-02-17T14:29:01.173Z,7.57
2023-02-17T14:31:30.427Z,9.13
2023-02-17T14:34:04.097Z,12.18
2023-02-17T14:36:42.419Z,9.15
2023-02-17T14:39:16.595Z,12.30
2023-02-17T14:41:45.233Z,8.95
2023-02-17T14:44:13.616Z,9.80
2023-02-17T14:46:42.027Z,8.32
2023-02-17T14:49:11.927Z,10.40
2023-02-17T14:51:41.034Z,7.88
2023-02-17T14:54:16.990Z,6.93
2023-02-17T14:56:54.580Z,7.45
2023-02-17T14:59:22.943Z,5.78
2023-02-17T15:01:52.112Z,7.32
2023-02-17T15:04:21.822Z,9.07
2023-02-17T15:06:54.646Z,8.23
2023-02-17T15:09:31.102Z,11.15
2023-02-17T15:12:00.344Z,6.43
2023-02-17T15:14:28.662Z,8.65
2023-02-17T15:16:57.022Z,7.75
2023-02-17T15:19:27.244Z,6.65
2023-02-17T15:21:57.182Z,6.70
2023-02-17T15:24:32.574Z,12.32
2023-02-17T15:27:03.085Z,6.43
2023-02-17T15:29:31.962Z,7.43
2023-02-17T15:32:04.749Z,5.93
2023-02-17T15:34:36.503Z,5.65
2023-02-17T15:37:08.811Z,4.70
2023-02-17T15:39:37.148Z,7.07
2023-02-17T15:42:13.506Z,6.43
2023-02-17T15:44:48.868Z,6.90
2023-02-17T15:47:21.168Z,8.45
2023-02-17T15:49:50.954Z,8.00
2023-02-17T15:52:19.233Z,5.13
2023-02-17T15:54:48.365Z,5.47
2023-02-17T15:57:22.033Z,7.38
2023-02-17T15:59:55.052Z,6.22
2023-02-17T16:02:25.933Z,5.55
2023-02-17T16:04:55.989Z,7.85
2023-02-17T16:07:24.591Z,5.13
2023-02-17T16:09:56.668Z,4.55
2023-02-17T16:12:27.359Z,4.25
2023-02-17T16:14:56.880Z,5.32
2023-02-17T16:17:26.466Z,8.00
2023-02-17T16:19:56.376Z,4.93
2023-02-17T16:22:24.802Z,4.65
2023-02-17T16:24:53.618Z,4.57
2023-02-17T16:27:24.047Z,5.32
2023-02-17T16:29:52.682Z,6.15
2023-02-17T16:32:21.101Z,5.57
2023-02-17T16:34:49.594Z,5.10
2023-02-17T16:37:19.538Z,7.10
2023-02-17T16:39:48.320Z,5.15
2023-02-17T16:42:17.362Z,5.20
2023-02-17T16:44:45.819Z,7.15
2023-02-17T16:47:22.503Z,5.60
2023-02-17T16:49:52.027Z,6.53
2023-02-17T16:52:26.224Z,6.38
2023-02-17T16:54:55.362Z,4.32
2023-02-17T16:57:24.074Z,5.68
2023-02-17T16:59:52.945Z,6.18
2023-02-17T17:02:22.090Z,5.63
2023-02-17T17:04:50.600Z,7.33
2023-02-17T17:07:23.717Z,6.97
2023-02-17T17:10:15.286Z,6.82
2023-02-17T17:15:43.678Z,8.98
2023-02-17T17:18:20.657Z,8.40
2023-02-17T17:20:49.884Z,6.65
2023-02-17T17:23:19.464Z,9.20
2023-02-17T17:31:47.723Z,7.70
2023-02-17T17:34:16.315Z,4.68
2023-02-17T17:36:48.502Z,8.77
2023-02-17T17:42:15.893Z,9.90
2023-02-17T17:47:31.484Z,8.95
2023-02-17T17:50:03.949Z,11.60
2023-02-17T17:52:41.470Z,10.77
2023-02-17T17:58:31.653Z,9.48
2023-02-17T18:01:01.092Z,9.45
2023-02-17T18:03:30.243Z,10.38
2023-02-17T18:06:08.458Z,10.50
2023-02-17T18:11:43.862Z,9.60
2023-02-17T18:14:16.507Z,8.65
2023-02-17T18:16:47.602Z,16.45
2023-02-17T18:21:56.387Z,5.88
2023-02-17T18:24:25.324Z,10.43
2023-02-17T18:26:54.338Z,11.20
2023-02-17T18:29:39.440Z,9.45
2023-02-17T18:32:24.157Z,6.95
2023-02-17T18:34:53.488Z,7.10
2023-02-17T18:37:28.549Z,6.47
2023-02-17T18:42:38.321Z,6.93
2023-02-17T18:45:09.882Z,6.47
2023-02-17T18:47:53.963Z,8.52
2023-02-17T18:50:23.439Z,7.82
2023-02-17T18:52:52.408Z,6.95
2023-02-17T18:55:28.011Z,4.97
2023-02-17T18:57:58.060Z,5.53
2023-02-17T19:03:16.574Z,8.68
2023-02-17T19:05:48.913Z,7.68
2023-02-17T19:11:02.403Z,9.18
2023-02-17T19:13:31.396Z,7.78
2023-02-17T19:19:00.120Z,7.28
2023-02-17T19:21:28.785Z,4.72
2023-02-17T19:23:57.779Z,4.78
2023-02-17T19:26:26.624Z,5.50
2023-02-17T19:31:42.924Z,6.13
2023-02-17T19:39:54.339Z,3.92
2023-02-17T19:42:23.378Z,4.60
2023-02-17T19:44:51.781Z,4.22
2023-02-17T19:50:17.714Z,5.32
2023-02-17T19:55:46.312Z,4.68
2023-02-17T19:58:14.831Z,5.68
2023-02-17T20:00:43.732Z,4.47
2023-02-17T20:03:13.066Z,4.47
2023-02-17T20:11:48.782Z,3.95
2023-02-17T20:14:17.766Z,6.22
2023-02-17T20:22:46.203Z,3.47
2023-02-17T20:25:14.609Z,3.60
2023-02-17T20:28:05.364Z,4.33
2023-02-17T20:30:34.339Z,5.87
2023-02-17T20:33:03.074Z,4.00
2023-02-17T20:41:24.601Z,5.07
2023-02-17T20:43:54.879Z,3.73
2023-02-17T20:46:26.033Z,4.50
2023-02-17T20:51:47.561Z,6.47
2023-02-17T20:54:16.259Z,4.23
2023-02-17T20:56:49.786Z,6.83
2023-02-17T20:59:18.871Z,5.97
2023-02-17T21:01:49.363Z,6.10
2023-02-17T21:04:18.803Z,5.90
2023-02-17T21:06:48.168Z,6.90
2023-02-17T21:09:19.175Z,6.60
2023-02-17T21:11:49.280Z,4.37
2023-02-17T21:14:18.055Z,5.93
2023-02-17T21:22:45.081Z,4.35
2023-02-17T21:39:31.172Z,4.68
2023-02-17T21:42:00.166Z,4.22
2023-02-17T21:44:47.421Z,4.00
2023-02-17T21:47:16.272Z,4.93
2023-02-17T21:49:45.411Z,4.45
2023-02-17T21:52:14.610Z,5.13
2023-02-17T21:57:54.082Z,4.40
2023-02-17T22:00:24.679Z,5.27
2023-02-17T22:02:53.149Z,3.90
2023-02-17T22:05:21.942Z,5.07
2023-02-17T22:07:51.229Z,3.90
2023-02-17T22:19:26.628Z,7.10
2023-02-17T22:21:55.424Z,5.00
2023-02-17T22:24:27.155Z,4.82
2023-02-17T22:26:56.329Z,5.47
2023-02-17T22:29:25.263Z,3.43
2023-02-17T22:31:56.213Z,3.00
2023-02-17T22:34:27.882Z,4.07
2023-02-17T22:37:15.649Z,2.78
2023-02-17T22:39:44.122Z,5.32
2023-02-17T22:42:12.705Z,2.60
2023-02-17T22:47:32.980Z,3.17
2023-02-17T22:52:58.308Z,3.67
2023-02-17T22:55:27.104Z,2.53
2023-02-17T22:57:55.451Z,2.15
2023-02-17T23:00:24.189Z,2.13
2023-02-17T23:02:52.490Z,2.78
2023-02-17T23:05:22.599Z,1.50
2023-02-17T23:10:32.819Z,2.13
2023-02-17T23:13:01.381Z,1.70
2023-02-17T23:15:40.328Z,2.88
2023-02-17T23:21:14.748Z,2.65
2023-02-17T23:26:17.223Z,1.88
2023-02-17T23:28:46.052Z,1.50
2023-02-17T23:31:14.962Z,0.95
2023-02-17T23:33:43.734Z,1.10
2023-02-17T23:36:15.056Z,1.48
2023-02-17T23:41:42.107Z,1.48
2023-02-17T23:44:13.489Z,1.73
2023-02-17T23:46:44.096Z,2.08
2023-02-17T23:52:11.089Z,2.55
2023-02-17T23:54:40.026Z,1.52
2023-02-17T23:57:09.093Z,2.60
2023-02-17T23:59:38.450Z,1.70
